Main page
METAR-TAF:

METAR-TAF

Airports :

Dole–Jura Airport

Dole, France

latitude: 47-02-34N, longitude: 005-26-06E, elevation: 196 m

Current weather observation

The report was made 25 minutes ago, at 16:30 UTC
Wind 7 kt from the Southeast
Temperature 14°C
Humidity 94%
Pressure 1010 hPa
Visibility: 6000 m

METAR: LFGJ 231630Z AUTO 14007KT 6000 NSC 14/13 Q1010 TEMPO 3000 BR BKN007

Time: 18:55 (16:55 UTC)

Forecast

The report was made 48 minutes ago, at 16:07 UTC
Forecast valid from 23 at 16 UTC to 23 at 24 UTC
Wind 8 kt from the South/Southwest
Visibility: 7000 m
Few clouds at a height of 1600 ft
Broken clouds at a height of 12000 ft
Temporary
from 23 at 16 UTC to 23 at 24 UTC
Visibility: 3000 m
Broken clouds at a height of 700 ft
mist

TAF: LFGJ 231607Z 2316/2324 20008KT 7000 FEW016 BKN120 TEMPO 2316/2324 3000 BR BKN007

Weather observations and forecasts of more than 4000 airports (METAR and TAF reports).

The available stations are represented by yellow and red dots on the map.

Hover mouse over dot to see the name of the station.

Then click to see weather observations and forecasts.

To change the map : click on the green buttons with a black cross to zoom in, on the green button with a dash to zoom out, or on the green arrows for adjacent maps.


METAR-TAF: